createdAt,value
2023-02-16T00:02:13.534Z,-1.60
2023-02-16T00:05:00.701Z,-1.90
2023-02-16T00:07:47.766Z,-1.90
2023-02-16T00:10:37.972Z,-1.90
2023-02-16T00:13:47.610Z,-1.80
2023-02-16T00:16:34.342Z,-1.90
2023-02-16T00:19:23.762Z,-2.00
2023-02-16T00:22:12.457Z,-1.50
2023-02-16T00:24:59.331Z,-2.00
2023-02-16T00:27:47.590Z,-1.90
2023-02-16T00:30:34.875Z,-1.50
2023-02-16T00:33:23.105Z,-2.00
2023-02-16T00:36:10.972Z,-2.10
2023-02-16T00:38:58.074Z,-2.10
2023-02-16T00:41:54.023Z,-2.10
2023-02-16T00:44:44.877Z,-2.10
2023-02-16T00:47:35.439Z,-2.20
2023-02-16T00:50:25.458Z,-2.20
2023-02-16T00:53:12.843Z,-2.30
2023-02-16T00:56:00.044Z,-2.20
2023-02-16T00:58:47.453Z,-2.10
2023-02-16T01:01:36.985Z,-2.20
2023-02-16T01:04:25.007Z,-2.10
2023-02-16T01:07:30.789Z,-2.20
2023-02-16T01:10:36.484Z,-2.20
2023-02-16T01:13:24.378Z,-2.10
2023-02-16T01:16:17.032Z,-2.20
2023-02-16T01:19:06.721Z,-2.30
2023-02-16T01:21:53.730Z,-2.40
2023-02-16T01:24:40.681Z,-2.40
2023-02-16T01:27:27.517Z,-2.40
2023-02-16T01:30:17.970Z,-2.40
2023-02-16T01:33:05.038Z,-2.40
2023-02-16T01:35:56.258Z,-2.40
2023-02-16T01:38:43.267Z,-2.40
2023-02-16T01:41:45.442Z,-2.30
2023-02-16T01:44:37.480Z,-2.20
2023-02-16T01:47:35.647Z,-2.40
2023-02-16T01:50:24.263Z,-2.30
2023-02-16T01:53:20.046Z,-2.40
2023-02-16T01:56:15.696Z,-2.40
2023-02-16T01:59:09.936Z,-2.50
2023-02-16T02:01:59.425Z,-2.50
2023-02-16T02:05:06.293Z,-2.60
2023-02-16T02:07:59.346Z,-2.40
2023-02-16T02:10:58.492Z,-2.50
2023-02-16T02:13:51.672Z,-2.60
2023-02-16T02:16:38.763Z,-2.20
2023-02-16T02:19:25.805Z,-2.50
2023-02-16T02:23:12.057Z,-2.50
2023-02-16T02:26:44.106Z,-2.50
2023-02-16T02:30:03.590Z,-2.50
2023-02-16T02:33:03.588Z,-2.40
2023-02-16T02:35:57.296Z,-2.50
2023-02-16T02:38:58.807Z,-2.50
2023-02-16T02:42:05.796Z,-2.50
2023-02-16T02:44:58.653Z,-2.40
2023-02-16T02:47:49.314Z,-2.60
2023-02-16T02:50:41.775Z,-2.60
2023-02-16T02:53:28.838Z,-2.50
2023-02-16T02:56:35.508Z,-2.60
2023-02-16T02:59:40.009Z,-2.60
2023-02-16T03:02:29.762Z,-2.20
2023-02-16T03:05:19.188Z,-2.70
2023-02-16T03:08:15.302Z,-2.70
2023-02-16T03:11:24.172Z,-2.80
2023-02-16T03:14:16.508Z,-2.80
2023-02-16T03:17:26.406Z,-2.80
2023-02-16T03:20:35.058Z,-2.80
2023-02-16T03:23:39.138Z,-2.70
2023-02-16T03:26:44.449Z,-2.80
2023-02-16T03:29:31.663Z,-2.70
2023-02-16T03:32:18.872Z,-2.60
2023-02-16T03:35:06.518Z,-2.70
2023-02-16T03:37:55.008Z,-2.60
2023-02-16T03:40:44.123Z,-2.50
2023-02-16T03:43:30.982Z,-2.10
2023-02-16T03:46:18.300Z,-2.60
2023-02-16T03:49:05.542Z,-2.50
2023-02-16T03:51:52.318Z,-2.70
2023-02-16T03:54:40.879Z,-2.70
2023-02-16T03:57:27.883Z,-2.60
2023-02-16T04:00:15.441Z,-2.60
2023-02-16T04:03:02.833Z,-2.70
2023-02-16T04:05:49.813Z,-2.70
2023-02-16T04:08:36.876Z,-2.60
2023-02-16T04:11:42.504Z,-2.60
2023-02-16T04:14:29.462Z,-2.60
2023-02-16T04:17:16.442Z,-2.50
2023-02-16T04:20:07.732Z,-2.50
2023-02-16T04:22:55.122Z,-2.50
2023-02-16T04:25:42.101Z,-2.50
2023-02-16T04:28:30.767Z,-2.60
2023-02-16T04:31:17.940Z,-2.60
2023-02-16T04:34:05.124Z,-2.60
2023-02-16T04:36:52.400Z,-2.60
2023-02-16T04:39:39.456Z,-2.60
2023-02-16T04:42:26.418Z,-2.70
2023-02-16T04:45:14.655Z,-2.20
2023-02-16T04:48:01.751Z,-2.80
2023-02-16T04:50:48.808Z,-2.70
2023-02-16T04:53:36.042Z,-2.70
2023-02-16T04:56:23.159Z,-2.70
2023-02-16T04:59:09.989Z,-2.70
2023-02-16T05:01:58.729Z,-2.80
2023-02-16T05:04:46.008Z,-2.80
2023-02-16T05:07:32.946Z,-2.80
2023-02-16T05:10:20.175Z,-2.90
2023-02-16T05:13:24.324Z,-2.90
2023-02-16T05:16:11.524Z,-2.70
2023-02-16T05:18:59.847Z,-3.00
2023-02-16T05:21:46.887Z,-3.00
2023-02-16T05:24:34.753Z,-3.00
2023-02-16T05:27:23.691Z,-3.00
2023-02-16T05:30:12.302Z,-3.00
2023-02-16T05:32:59.094Z,-3.20
2023-02-16T05:35:55.677Z,-3.00
2023-02-16T05:38:44.506Z,-3.00
2023-02-16T05:41:35.193Z,-2.90
2023-02-16T05:44:22.277Z,-3.00
2023-02-16T05:47:09.394Z,-3.00
2023-02-16T05:49:56.177Z,-3.00
2023-02-16T05:52:44.470Z,-3.00
2023-02-16T05:55:31.489Z,-3.00
2023-02-16T05:58:18.378Z,-3.10
2023-02-16T06:01:06.063Z,-3.10
2023-02-16T06:03:53.445Z,-3.00
2023-02-16T06:06:41.214Z,-3.00
2023-02-16T06:09:31.341Z,-3.00
2023-02-16T06:12:18.166Z,-3.10
2023-02-16T06:15:05.255Z,-3.00
2023-02-16T06:17:51.983Z,-3.00
2023-02-16T06:20:38.865Z,-3.00
2023-02-16T06:23:25.530Z,-3.00
2023-02-16T06:26:13.515Z,-3.00
2023-02-16T06:29:00.838Z,-3.00
2023-02-16T06:31:47.956Z,-3.00
2023-02-16T06:34:35.035Z,-3.00
2023-02-16T06:37:22.320Z,-3.00
2023-02-16T06:40:10.479Z,-3.00
2023-02-16T06:42:58.794Z,-3.10
2023-02-16T06:45:45.886Z,-3.10
2023-02-16T06:48:33.428Z,-3.10
2023-02-16T06:51:21.012Z,-3.10
2023-02-16T06:54:08.480Z,-3.00
2023-02-16T06:56:55.563Z,-3.10
2023-02-16T06:59:43.895Z,-3.00
2023-02-16T07:02:31.135Z,-3.00
2023-02-16T07:05:18.736Z,-3.00
2023-02-16T07:08:09.030Z,-3.00
2023-02-16T07:10:56.132Z,-2.90
2023-02-16T07:13:43.367Z,-2.90
2023-02-16T07:16:32.320Z,-2.90
2023-02-16T07:19:19.305Z,-2.80
2023-02-16T07:22:06.316Z,-2.80
2023-02-16T07:24:53.117Z,-2.80
2023-02-16T07:27:40.302Z,-2.70
2023-02-16T07:30:27.516Z,-2.70
2023-02-16T07:33:16.757Z,-2.60
2023-02-16T07:36:03.952Z,-2.50
2023-02-16T07:38:51.797Z,-2.40
2023-02-16T07:41:38.843Z,-2.30
2023-02-16T07:44:25.836Z,-2.20
2023-02-16T07:47:13.725Z,-2.10
2023-02-16T07:50:02.333Z,-1.90
2023-02-16T07:52:49.482Z,-1.90
2023-02-16T07:55:40.641Z,-1.80
2023-02-16T07:58:31.297Z,-1.70
2023-02-16T08:01:18.714Z,-1.20
2023-02-16T08:04:06.780Z,-0.70
2023-02-16T08:06:55.146Z,0.00
2023-02-16T08:09:42.272Z,0.90
2023-02-16T08:12:29.564Z,1.80
2023-02-16T08:15:17.215Z,3.70
2023-02-16T08:18:04.114Z,4.40
2023-02-16T08:21:03.955Z,5.00
2023-02-16T08:23:56.524Z,4.10
2023-02-16T08:26:44.822Z,4.70
2023-02-16T08:29:32.474Z,5.80
2023-02-16T08:32:21.879Z,7.20
2023-02-16T08:35:10.209Z,8.70
2023-02-16T08:37:57.033Z,7.70
2023-02-16T08:40:50.574Z,6.80
2023-02-16T08:43:37.654Z,5.50
2023-02-16T08:46:24.788Z,5.30
2023-02-16T08:49:12.948Z,6.00
2023-02-16T08:52:01.579Z,6.80
2023-02-16T08:54:48.609Z,7.80
2023-02-16T08:57:37.365Z,7.80
2023-02-16T09:00:38.635Z,9.00
2023-02-16T09:03:25.528Z,8.70
2023-02-16T09:06:14.090Z,9.50
2023-02-16T09:09:01.040Z,10.00
2023-02-16T09:11:47.878Z,10.60
2023-02-16T09:14:37.039Z,9.00
2023-02-16T09:17:24.057Z,8.00
2023-02-16T09:20:12.341Z,9.60
2023-02-16T09:22:59.204Z,9.90
2023-02-16T09:25:46.280Z,9.70
2023-02-16T09:28:33.823Z,9.40
2023-02-16T09:31:26.360Z,10.30
2023-02-16T09:34:17.855Z,10.40
2023-02-16T09:37:04.858Z,11.20
2023-02-16T09:39:51.932Z,10.60
2023-02-16T09:42:51.602Z,10.90
2023-02-16T09:45:44.984Z,10.50
2023-02-16T09:48:38.536Z,10.70
2023-02-16T09:51:34.278Z,12.10
2023-02-16T09:54:36.205Z,13.00
2023-02-16T09:57:48.643Z,12.60
2023-02-16T10:01:00.157Z,13.40
2023-02-16T10:03:56.788Z,13.20
2023-02-16T10:06:55.993Z,13.60
2023-02-16T10:09:48.703Z,13.80
2023-02-16T10:12:44.109Z,13.10
2023-02-16T10:15:33.656Z,13.30
2023-02-16T10:18:29.322Z,14.70
2023-02-16T10:21:22.820Z,14.90
2023-02-16T10:24:13.568Z,14.30
2023-02-16T10:27:07.603Z,14.50
2023-02-16T10:29:55.611Z,15.00
2023-02-16T10:32:55.068Z,15.30
2023-02-16T10:35:48.275Z,17.00
2023-02-16T10:38:43.801Z,15.60
2023-02-16T10:41:34.624Z,14.40
2023-02-16T10:44:26.190Z,15.70
2023-02-16T10:47:26.248Z,15.90
2023-02-16T10:50:23.173Z,15.80
2023-02-16T10:53:18.166Z,16.90
2023-02-16T10:56:28.506Z,17.70
2023-02-16T10:59:19.111Z,18.30
2023-02-16T11:02:19.202Z,18.00
2023-02-16T11:05:32.395Z,18.10
2023-02-16T11:08:19.521Z,17.50
2023-02-16T11:11:10.980Z,17.60
2023-02-16T11:14:01.753Z,17.00
2023-02-16T11:16:49.209Z,17.60
2023-02-16T11:19:37.679Z,17.20
2023-02-16T11:22:32.429Z,17.20
2023-02-16T11:25:25.916Z,16.90
2023-02-16T11:28:12.640Z,16.80
2023-02-16T11:31:12.472Z,17.70
2023-02-16T11:34:04.331Z,17.50
2023-02-16T11:36:53.371Z,16.80
2023-02-16T11:39:48.532Z,15.80
2023-02-16T11:42:40.384Z,16.10
2023-02-16T11:45:31.410Z,16.50
2023-02-16T11:48:31.345Z,16.80
2023-02-16T11:51:33.294Z,17.10
2023-02-16T11:54:20.973Z,16.90
2023-02-16T11:57:11.229Z,15.40
2023-02-16T11:59:59.878Z,15.50
2023-02-16T12:03:11.289Z,15.60
2023-02-16T12:06:23.561Z,14.10
2023-02-16T12:09:20.962Z,13.90
2023-02-16T12:12:16.317Z,14.00
2023-02-16T12:15:12.025Z,14.60
2023-02-16T12:18:14.312Z,13.50
2023-02-16T12:21:14.462Z,12.90
2023-02-16T12:24:09.574Z,12.40
2023-02-16T12:26:59.658Z,13.10
2023-02-16T12:29:57.179Z,12.90
2023-02-16T12:33:01.744Z,13.00
2023-02-16T12:36:02.252Z,12.90
2023-02-16T12:38:59.941Z,12.80
2023-02-16T12:42:00.027Z,13.00
2023-02-16T12:44:51.771Z,13.10
2023-02-16T12:47:44.156Z,12.90
2023-02-16T12:50:34.459Z,13.20
2023-02-16T12:53:28.638Z,12.60
2023-02-16T12:56:20.583Z,12.40
2023-02-16T12:59:16.782Z,12.40
2023-02-16T13:02:13.338Z,12.80
2023-02-16T13:05:08.775Z,12.80
2023-02-16T13:08:02.925Z,12.80
2023-02-16T13:10:57.467Z,12.90
2023-02-16T13:13:46.028Z,13.20
2023-02-16T13:16:40.742Z,12.80
2023-02-16T13:19:29.509Z,13.20
2023-02-16T13:22:37.799Z,12.90
2023-02-16T13:25:48.196Z,13.00
2023-02-16T13:28:54.598Z,12.90
2023-02-16T13:31:53.676Z,12.50
2023-02-16T13:35:16.844Z,12.00
2023-02-16T13:38:19.413Z,11.70
2023-02-16T13:41:44.166Z,11.10
2023-02-16T13:44:38.766Z,11.20
2023-02-16T13:47:30.150Z,10.90
2023-02-16T13:50:31.095Z,11.10
2023-02-16T13:53:21.041Z,11.00
2023-02-16T13:56:25.840Z,10.70
2023-02-16T13:59:57.862Z,10.70
2023-02-16T14:02:59.386Z,10.70
2023-02-16T14:05:49.323Z,10.50
2023-02-16T14:08:35.973Z,10.70
2023-02-16T14:11:23.279Z,10.70
2023-02-16T14:14:29.690Z,10.90
2023-02-16T14:17:18.330Z,10.50
2023-02-16T14:20:09.165Z,10.20
2023-02-16T14:23:00.142Z,10.30
2023-02-16T14:25:47.443Z,10.40
2023-02-16T14:29:12.614Z,10.50
2023-02-16T14:32:06.001Z,10.40
2023-02-16T14:34:58.298Z,10.50
2023-02-16T14:37:53.102Z,10.70
2023-02-16T14:40:52.154Z,10.20
2023-02-16T14:43:43.317Z,10.20
2023-02-16T14:46:43.461Z,10.30
2023-02-16T14:50:03.802Z,10.20
2023-02-16T14:53:12.825Z,10.10
2023-02-16T14:56:25.779Z,10.20
2023-02-16T14:59:28.017Z,10.00
2023-02-16T15:02:30.411Z,10.30
2023-02-16T15:05:21.615Z,10.50
2023-02-16T15:08:13.276Z,10.50
2023-02-16T15:11:05.942Z,10.40
2023-02-16T15:13:55.343Z,10.50
2023-02-16T15:16:43.061Z,10.60
2023-02-16T15:19:32.335Z,10.50
2023-02-16T15:22:22.195Z,10.40
2023-02-16T15:25:27.933Z,10.60
2023-02-16T15:28:22.758Z,10.60
2023-02-16T15:31:18.654Z,10.30
2023-02-16T15:34:08.163Z,10.10
2023-02-16T15:36:55.056Z,9.70
2023-02-16T15:39:56.021Z,9.20
2023-02-16T15:42:51.963Z,9.30
2023-02-16T15:45:39.612Z,9.60
2023-02-16T15:48:30.785Z,9.80
2023-02-16T15:51:25.465Z,9.90
2023-02-16T15:54:22.383Z,9.90
2023-02-16T15:57:16.772Z,9.90
2023-02-16T16:00:07.468Z,10.00
2023-02-16T16:02:58.463Z,10.00
2023-02-16T16:05:59.042Z,9.90
2023-02-16T16:08:46.764Z,9.90
2023-02-16T16:11:34.544Z,9.90
2023-02-16T16:14:22.585Z,9.80
2023-02-16T16:17:15.700Z,9.80
2023-02-16T16:20:29.253Z,9.70
2023-02-16T16:23:28.482Z,9.40
2023-02-16T16:26:19.812Z,9.30
2023-02-16T16:29:31.916Z,9.30
2023-02-16T16:32:21.418Z,9.30
2023-02-16T16:35:21.476Z,9.20
2023-02-16T16:38:22.075Z,9.20
2023-02-16T16:41:25.185Z,9.20
2023-02-16T16:44:28.835Z,9.10
2023-02-16T16:47:24.711Z,8.90
2023-02-16T16:50:33.394Z,8.90
2023-02-16T16:53:55.240Z,8.80
2023-02-16T16:56:43.134Z,8.70
2023-02-16T16:59:30.160Z,8.70
2023-02-16T17:02:18.513Z,8.70
2023-02-16T17:05:06.873Z,8.70
2023-02-16T17:07:53.736Z,8.70
2023-02-16T17:10:42.438Z,8.60
2023-02-16T17:13:29.265Z,8.50
2023-02-16T17:16:21.814Z,8.60
2023-02-16T17:19:13.093Z,8.50
2023-02-16T17:21:59.906Z,8.40
2023-02-16T17:24:47.432Z,8.40
2023-02-16T17:27:34.053Z,8.20
2023-02-16T17:30:21.230Z,8.10
2023-02-16T17:33:09.678Z,8.00
2023-02-16T17:35:58.185Z,8.00
2023-02-16T17:38:45.736Z,8.00
2023-02-16T17:41:33.607Z,7.90
2023-02-16T17:44:22.044Z,8.00
2023-02-16T17:47:11.584Z,8.00
2023-02-16T17:49:58.203Z,7.90
2023-02-16T17:52:47.038Z,7.80
2023-02-16T17:55:35.991Z,7.90
2023-02-16T17:58:24.137Z,7.90
2023-02-16T18:01:14.204Z,7.80
2023-02-16T18:04:03.271Z,7.60
2023-02-16T18:06:51.282Z,7.50
2023-02-16T18:09:39.773Z,7.60
2023-02-16T18:12:28.496Z,7.70
2023-02-16T18:15:15.665Z,7.70
2023-02-16T18:18:02.743Z,7.70
2023-02-16T18:20:49.798Z,7.60
2023-02-16T18:23:37.114Z,7.40
2023-02-16T18:26:26.254Z,7.40
2023-02-16T18:29:13.840Z,7.20
2023-02-16T18:32:00.820Z,7.30
2023-02-16T18:34:47.815Z,7.10
2023-02-16T18:37:35.006Z,7.00
2023-02-16T18:40:22.538Z,7.00
2023-02-16T18:43:11.508Z,7.10
2023-02-16T18:45:58.751Z,7.30
2023-02-16T18:48:45.563Z,7.40
2023-02-16T18:51:33.716Z,7.50
2023-02-16T18:54:20.891Z,7.50
2023-02-16T18:57:08.052Z,7.50
2023-02-16T18:59:56.794Z,7.40
2023-02-16T19:02:44.389Z,7.40
2023-02-16T19:05:31.353Z,7.30
2023-02-16T19:08:18.271Z,7.30
2023-02-16T19:11:05.279Z,7.10
2023-02-16T19:13:52.497Z,6.80
2023-02-16T19:16:41.439Z,6.70
2023-02-16T19:19:30.141Z,6.50
2023-02-16T19:22:18.102Z,6.40
2023-02-16T19:25:05.832Z,6.30
2023-02-16T19:27:53.093Z,6.20
2023-02-16T19:30:40.986Z,6.20
2023-02-16T19:33:30.753Z,6.10
2023-02-16T19:36:25.317Z,6.00
2023-02-16T19:39:14.397Z,6.00
2023-02-16T19:42:03.643Z,5.80
2023-02-16T19:44:51.176Z,5.70
2023-02-16T19:47:40.607Z,5.70
2023-02-16T19:50:31.611Z,5.70
2023-02-16T19:53:28.480Z,5.70
2023-02-16T19:56:20.103Z,5.60
2023-02-16T19:59:11.343Z,5.40
2023-02-16T20:01:59.690Z,5.40
2023-02-16T20:04:53.322Z,5.30
2023-02-16T20:07:47.137Z,5.30
2023-02-16T20:10:34.976Z,5.20
2023-02-16T20:13:22.550Z,5.20
2023-02-16T20:16:18.680Z,5.20
2023-02-16T20:19:10.419Z,5.40
2023-02-16T20:22:00.217Z,5.80
2023-02-16T20:24:50.603Z,5.50
2023-02-16T20:27:40.534Z,5.50
2023-02-16T20:30:28.099Z,5.50
2023-02-16T20:33:15.732Z,5.30
2023-02-16T20:36:03.744Z,5.20
2023-02-16T20:38:52.004Z,5.20
2023-02-16T20:41:43.332Z,5.10
2023-02-16T20:44:34.849Z,5.10
2023-02-16T20:47:22.844Z,5.00
2023-02-16T20:50:11.889Z,5.10
2023-02-16T20:53:01.636Z,5.10
2023-02-16T20:55:51.561Z,5.10
2023-02-16T20:58:43.769Z,5.50
2023-02-16T21:01:34.328Z,5.40
2023-02-16T21:04:26.110Z,5.30
2023-02-16T21:07:21.690Z,5.20
2023-02-16T21:10:12.160Z,5.20
2023-02-16T21:13:00.091Z,5.10
2023-02-16T21:15:53.782Z,5.10
2023-02-16T21:18:46.960Z,5.20
2023-02-16T21:21:41.584Z,5.00
2023-02-16T21:24:29.233Z,5.00
2023-02-16T21:27:16.799Z,5.20
2023-02-16T21:30:06.793Z,5.40
2023-02-16T21:33:01.185Z,5.30
2023-02-16T21:35:52.871Z,5.30
2023-02-16T21:38:41.207Z,5.40
2023-02-16T21:41:29.466Z,5.30
2023-02-16T21:44:18.867Z,5.30
2023-02-16T21:47:23.775Z,5.30
2023-02-16T21:50:18.393Z,5.20
2023-02-16T21:53:07.817Z,5.10
2023-02-16T21:56:12.511Z,5.00
2023-02-16T22:01:56.500Z,4.90
2023-02-16T22:04:43.765Z,5.20
2023-02-16T22:07:31.609Z,5.40
2023-02-16T22:10:18.690Z,5.60
2023-02-16T22:13:06.280Z,5.80
2023-02-16T22:15:53.529Z,5.90
2023-02-16T22:18:40.662Z,6.00
2023-02-16T22:21:28.872Z,6.10
2023-02-16T22:24:19.682Z,6.20
2023-02-16T22:27:06.893Z,6.20
2023-02-16T22:29:53.966Z,6.10
2023-02-16T22:32:40.953Z,6.20
2023-02-16T22:35:27.690Z,6.40
2023-02-16T22:38:14.566Z,6.40
2023-02-16T22:41:07.273Z,6.40
2023-02-16T22:43:55.736Z,6.40
2023-02-16T22:46:42.599Z,6.40
2023-02-16T22:49:29.999Z,6.40
2023-02-16T22:52:16.920Z,6.50
2023-02-16T22:55:03.822Z,6.50
2023-02-16T22:57:52.234Z,6.50
2023-02-16T23:00:39.112Z,6.50
2023-02-16T23:03:26.142Z,6.60
2023-02-16T23:06:14.692Z,6.60
2023-02-16T23:09:03.862Z,6.40
2023-02-16T23:11:51.446Z,6.40
2023-02-16T23:14:40.168Z,6.40
2023-02-16T23:17:27.365Z,6.40
2023-02-16T23:20:14.142Z,6.40
2023-02-16T23:23:00.888Z,6.30
2023-02-16T23:25:48.428Z,6.20
2023-02-16T23:28:35.461Z,6.10
2023-02-16T23:31:24.118Z,6.10
2023-02-16T23:34:12.562Z,5.90
2023-02-16T23:36:59.231Z,6.00
2023-02-16T23:39:46.315Z,5.90
2023-02-16T23:42:33.526Z,5.60
2023-02-16T23:45:20.309Z,5.70
2023-02-16T23:48:08.432Z,5.80
2023-02-16T23:50:55.863Z,5.80
2023-02-16T23:53:42.688Z,5.80
2023-02-16T23:56:30.371Z,5.80
2023-02-16T23:59:17.365Z,5.70
